createdAt,value
2022-08-01T00:00:46.696Z,12.43
2022-08-01T00:03:18.752Z,7.53
2022-08-01T00:05:50.721Z,8.70
2022-08-01T00:08:22.662Z,10.23
2022-08-01T00:10:54.650Z,8.88
2022-08-01T00:13:26.610Z,10.05
2022-08-01T00:15:58.627Z,7.53
2022-08-01T00:18:30.618Z,13.43
2022-08-01T00:21:04.535Z,11.52
2022-08-01T00:23:36.537Z,11.18
2022-08-01T00:26:08.814Z,9.93
2022-08-01T00:28:41.752Z,12.18
2022-08-01T00:31:13.813Z,11.85
2022-08-01T00:33:45.772Z,14.05
2022-08-01T00:36:17.871Z,15.43
2022-08-01T00:38:49.845Z,14.00
2022-08-01T00:41:21.850Z,16.38
2022-08-01T00:43:53.901Z,18.73
2022-08-01T00:46:25.873Z,20.63
2022-08-01T00:48:58.857Z,19.75
2022-08-01T00:51:31.636Z,22.38
2022-08-01T00:54:03.755Z,26.30
2022-08-01T00:56:35.826Z,21.67
2022-08-01T00:59:09.662Z,20.90
2022-08-01T01:01:46.757Z,20.73
2022-08-01T01:07:18.596Z,23.02
2022-08-01T01:10:29.435Z,22.73
2022-08-01T01:13:10.724Z,30.05
2022-08-01T01:15:55.966Z,26.48
2022-08-01T01:18:37.019Z,18.73
2022-08-01T01:21:43.930Z,13.32
2022-08-01T01:24:40.277Z,12.30
2022-08-01T01:27:59.424Z,12.80
2022-08-01T01:30:34.051Z,17.77
2022-08-01T01:33:11.044Z,16.38
2022-08-01T01:35:50.218Z,20.20
2022-08-01T01:38:25.685Z,20.25
2022-08-01T01:40:58.890Z,19.40
2022-08-01T01:43:33.737Z,20.08
2022-08-01T01:46:07.610Z,21.05
2022-08-01T01:48:41.209Z,19.95
2022-08-01T01:51:15.259Z,27.60
2022-08-01T01:53:48.894Z,20.58
2022-08-01T01:56:22.042Z,26.48
2022-08-01T01:58:58.684Z,21.27
2022-08-01T02:01:58.577Z,23.77
2022-08-01T02:04:28.368Z,25.33
2022-08-01T02:07:02.043Z,22.48
2022-08-01T02:09:35.547Z,22.02
2022-08-01T02:12:09.238Z,24.67
2022-08-01T02:14:43.057Z,24.10
2022-08-01T02:17:18.765Z,31.02
2022-08-01T02:19:51.129Z,25.40
2022-08-01T02:22:36.857Z,16.77
2022-08-01T02:25:26.910Z,16.30
2022-08-01T02:28:07.312Z,10.23
2022-08-01T02:30:44.119Z,9.68
2022-08-01T02:33:37.418Z,7.07
2022-08-01T02:36:32.468Z,13.27
2022-08-01T02:39:09.301Z,9.50
2022-08-01T02:41:51.376Z,9.27
2022-08-01T02:44:32.829Z,10.75
2022-08-01T02:47:05.827Z,10.60
2022-08-01T02:49:46.478Z,10.82
2022-08-01T02:52:27.129Z,13.90
2022-08-01T02:55:00.924Z,13.45
2022-08-01T02:57:51.349Z,16.83
2022-08-01T03:00:26.091Z,13.63
2022-08-01T03:03:00.806Z,11.95
2022-08-01T03:05:34.137Z,13.75
2022-08-01T03:08:11.890Z,16.77
2022-08-01T03:10:48.120Z,15.05
2022-08-01T03:13:22.979Z,15.65
2022-08-01T03:15:56.934Z,16.73
2022-08-01T03:18:30.790Z,11.82
2022-08-01T03:21:04.762Z,14.90
2022-08-01T03:23:39.080Z,13.35
2022-08-01T03:26:12.002Z,18.00
2022-08-01T03:28:47.462Z,11.40
2022-08-01T03:31:20.031Z,14.30
2022-08-01T03:33:52.157Z,11.55
2022-08-01T03:36:27.926Z,16.08
2022-08-01T03:39:04.075Z,13.95
2022-08-01T03:41:42.338Z,14.23
2022-08-01T03:44:27.452Z,11.60
2022-08-01T03:47:05.583Z,10.55
2022-08-01T03:49:44.125Z,9.13
2022-08-01T03:52:16.906Z,13.30
2022-08-01T03:54:52.443Z,11.15
2022-08-01T03:57:35.775Z,8.48
2022-08-01T04:00:10.254Z,6.60
2022-08-01T04:02:43.315Z,10.57
2022-08-01T04:05:17.138Z,9.48
2022-08-01T04:08:03.023Z,13.73
2022-08-01T04:10:35.139Z,12.70
2022-08-01T04:13:07.290Z,9.60
2022-08-01T04:15:39.268Z,11.30
2022-08-01T04:18:11.235Z,19.02
2022-08-01T04:20:43.231Z,11.93
2022-08-01T04:23:19.415Z,13.05
2022-08-01T04:25:51.990Z,19.83
2022-08-01T04:28:25.651Z,9.60
2022-08-01T04:31:02.118Z,7.78
2022-08-01T04:33:37.588Z,8.73
2022-08-01T04:36:13.709Z,5.45
2022-08-01T04:38:49.832Z,7.25
2022-08-01T04:41:23.442Z,5.68
2022-08-01T04:43:56.139Z,6.55
2022-08-01T04:46:29.881Z,4.68
2022-08-01T04:49:03.042Z,2.42
2022-08-01T04:51:35.647Z,3.92
2022-08-01T04:54:08.459Z,3.15
2022-08-01T04:56:40.792Z,3.13
2022-08-01T04:59:31.367Z,3.15
2022-08-01T05:02:03.649Z,4.80
2022-08-01T05:04:36.830Z,6.50
2022-08-01T05:07:10.465Z,2.72
2022-08-01T05:09:43.474Z,4.47
2022-08-01T05:12:15.432Z,3.90
2022-08-01T05:14:47.420Z,4.75
2022-08-01T05:17:19.429Z,3.28
2022-08-01T05:19:51.772Z,3.08
2022-08-01T05:22:25.282Z,7.35
2022-08-01T05:24:57.950Z,5.60
2022-08-01T05:27:29.906Z,5.53
2022-08-01T05:30:03.284Z,5.88
2022-08-01T05:32:35.664Z,6.18
2022-08-01T05:35:08.977Z,3.85
2022-08-01T05:37:40.952Z,7.32
2022-08-01T05:40:13.217Z,2.95
2022-08-01T05:42:45.180Z,5.35
2022-08-01T05:45:17.272Z,2.47
2022-08-01T05:47:49.764Z,4.68
2022-08-01T05:50:21.839Z,8.55
2022-08-01T05:52:53.796Z,4.32
2022-08-01T05:55:25.802Z,6.18
2022-08-01T05:57:57.731Z,5.72
2022-08-01T06:00:29.774Z,5.22
2022-08-01T06:03:01.731Z,11.27
2022-08-01T06:05:33.698Z,6.22
2022-08-01T06:08:05.782Z,12.40
2022-08-01T06:10:37.925Z,9.27
2022-08-01T06:13:09.930Z,17.00
2022-08-01T06:15:42.026Z,7.30
2022-08-01T06:18:15.245Z,9.73
2022-08-01T06:20:47.302Z,16.63
2022-08-01T06:23:31.220Z,11.13
2022-08-01T06:26:04.812Z,12.20
2022-08-01T06:28:37.540Z,11.07
2022-08-01T06:31:10.939Z,12.52
2022-08-01T06:33:42.962Z,8.40
2022-08-01T06:36:14.910Z,13.75
2022-08-01T06:38:46.893Z,15.38
2022-08-01T06:41:18.834Z,19.17
2022-08-01T06:43:50.798Z,16.45
2022-08-01T06:46:22.716Z,12.60
2022-08-01T06:48:54.764Z,20.92
2022-08-01T06:51:26.797Z,14.93
2022-08-01T06:53:58.844Z,19.27
2022-08-01T06:56:30.911Z,14.25
2022-08-01T06:59:02.884Z,18.40
2022-08-01T07:01:35.168Z,16.85
2022-08-01T07:04:08.101Z,19.00
2022-08-01T07:06:40.048Z,10.93
2022-08-01T07:09:14.346Z,18.50
2022-08-01T07:11:46.725Z,17.35
2022-08-01T07:14:18.740Z,11.77
2022-08-01T07:16:51.425Z,18.02
2022-08-01T07:19:23.389Z,11.27
2022-08-01T07:21:55.349Z,16.60
2022-08-01T07:24:27.557Z,13.43
2022-08-01T07:27:00.878Z,15.77
2022-08-01T07:29:53.021Z,9.98
2022-08-01T07:32:25.842Z,19.05
2022-08-01T07:34:58.124Z,14.02
2022-08-01T07:37:46.164Z,12.80
2022-08-01T07:40:21.684Z,17.77
2022-08-01T07:42:53.719Z,16.17
2022-08-01T07:45:25.965Z,14.27
2022-08-01T07:47:57.972Z,13.52
2022-08-01T07:50:31.111Z,17.75
2022-08-01T07:53:06.277Z,14.70
2022-08-01T07:55:38.510Z,12.30
2022-08-01T07:58:10.527Z,14.25
2022-08-01T08:00:42.806Z,20.73
2022-08-01T08:03:15.008Z,24.10
2022-08-01T08:05:58.123Z,16.02
2022-08-01T08:08:32.662Z,11.75
2022-08-01T08:11:04.645Z,9.13
2022-08-01T08:13:36.678Z,11.02
2022-08-01T08:16:08.665Z,26.92
2022-08-01T08:18:40.613Z,17.73
2022-08-01T08:21:12.582Z,12.00
2022-08-01T08:24:02.816Z,10.57
2022-08-01T08:29:06.813Z,17.65
2022-08-01T08:31:51.369Z,14.77
2022-08-01T08:34:25.117Z,14.32
2022-08-01T08:36:58.911Z,16.85
2022-08-01T08:39:31.158Z,12.23
2022-08-01T08:42:14.256Z,23.20
2022-08-01T08:44:46.285Z,13.13
2022-08-01T08:47:20.931Z,10.60
2022-08-01T08:49:56.305Z,19.77
2022-08-01T08:52:28.750Z,16.25
2022-08-01T08:55:00.877Z,16.05
2022-08-01T08:57:33.141Z,15.60
2022-08-01T09:00:06.507Z,8.32
2022-08-01T09:02:46.422Z,13.73
2022-08-01T09:05:20.194Z,12.00
2022-08-01T09:07:53.404Z,10.85
2022-08-01T09:10:25.381Z,9.55
2022-08-01T09:13:12.922Z,17.45
2022-08-01T09:15:49.138Z,11.00
2022-08-01T09:18:36.043Z,10.35
2022-08-01T09:21:15.445Z,8.02
2022-08-01T09:23:53.488Z,15.27
2022-08-01T09:26:36.169Z,8.25
2022-08-01T09:29:28.975Z,7.93
2022-08-01T09:32:16.373Z,13.82
2022-08-01T09:34:48.623Z,11.05
2022-08-01T09:37:37.536Z,15.02
2022-08-01T09:40:10.199Z,15.07
2022-08-01T09:42:42.549Z,9.05
2022-08-01T09:45:41.305Z,14.13
2022-08-01T09:48:19.026Z,6.88
2022-08-01T09:51:04.837Z,9.35
2022-08-01T09:53:53.453Z,10.25
2022-08-01T09:56:27.040Z,9.88
2022-08-01T09:59:02.430Z,7.10
2022-08-01T10:01:48.309Z,18.60
2022-08-01T10:04:23.066Z,13.65
2022-08-01T10:07:08.746Z,11.35
2022-08-01T10:09:41.295Z,8.40
2022-08-01T10:12:18.203Z,10.48
2022-08-01T10:14:53.138Z,7.78
2022-08-01T10:17:26.484Z,7.53
2022-08-01T10:20:29.890Z,8.85
2022-08-01T10:23:06.053Z,9.85
2022-08-01T10:25:46.889Z,11.95
2022-08-01T10:28:24.332Z,7.18
2022-08-01T10:30:59.369Z,14.95
2022-08-01T10:33:50.630Z,7.95
2022-08-01T10:36:25.385Z,9.23
2022-08-01T10:38:58.050Z,6.88
2022-08-01T10:41:30.829Z,8.40
2022-08-01T10:44:03.919Z,5.90
2022-08-01T10:46:40.339Z,11.52
2022-08-01T10:49:21.938Z,13.75
2022-08-01T10:51:54.966Z,8.93
2022-08-01T10:54:27.795Z,7.40
2022-08-01T10:57:01.697Z,8.90
2022-08-01T10:59:50.135Z,9.00
2022-08-01T11:02:35.238Z,4.53
2022-08-01T11:05:23.865Z,5.50
2022-08-01T11:07:56.467Z,9.07
2022-08-01T11:10:46.935Z,6.28
2022-08-01T11:14:01.862Z,12.45
2022-08-01T11:16:36.860Z,5.47
2022-08-01T11:19:09.611Z,9.32
2022-08-01T11:21:57.686Z,11.45
2022-08-01T11:24:52.364Z,9.18
2022-08-01T11:27:33.941Z,7.65
2022-08-01T11:30:13.110Z,16.10
2022-08-01T11:33:11.636Z,5.53
2022-08-01T11:36:11.905Z,7.55
2022-08-01T11:38:48.867Z,6.75
2022-08-01T11:41:37.270Z,6.45
2022-08-01T11:44:28.205Z,10.80
2022-08-01T11:47:09.103Z,9.18
2022-08-01T11:49:49.180Z,11.20
2022-08-01T11:55:10.022Z,10.25
2022-08-01T11:57:42.570Z,6.82
2022-08-01T12:00:18.265Z,8.75
2022-08-01T12:03:06.669Z,5.70
2022-08-01T12:05:43.331Z,8.65
2022-08-01T12:08:43.478Z,9.23
2022-08-01T12:11:15.484Z,9.73
2022-08-01T12:13:49.102Z,6.65
2022-08-01T12:16:21.084Z,4.68
2022-08-01T12:19:00.656Z,6.75
2022-08-01T12:21:32.666Z,9.43
2022-08-01T12:24:04.925Z,5.50
2022-08-01T12:26:44.353Z,7.72
2022-08-01T12:29:41.926Z,5.95
2022-08-01T12:32:37.630Z,6.63
2022-08-01T12:35:19.294Z,6.32
2022-08-01T12:37:59.696Z,7.32
2022-08-01T12:40:40.927Z,8.30
2022-08-01T12:43:28.157Z,4.63
2022-08-01T12:46:03.104Z,7.30
2022-08-01T12:48:35.500Z,8.98
2022-08-01T12:51:10.247Z,5.88
2022-08-01T12:53:42.331Z,4.78
2022-08-01T12:56:15.415Z,6.00
2022-08-01T12:58:47.432Z,8.55
2022-08-01T13:01:28.266Z,9.40
2022-08-01T13:04:07.620Z,3.97
2022-08-01T13:06:39.663Z,6.47
2022-08-01T13:09:13.538Z,9.90
2022-08-01T13:11:58.843Z,5.75
2022-08-01T13:14:41.876Z,11.70
2022-08-01T13:17:36.333Z,5.78
2022-08-01T13:20:09.086Z,8.82
2022-08-01T13:22:41.310Z,7.05
2022-08-01T13:25:22.102Z,9.43
2022-08-01T13:28:20.764Z,5.93
2022-08-01T13:31:05.919Z,3.33
2022-08-01T13:33:52.359Z,3.97
2022-08-01T13:36:33.104Z,7.72
2022-08-01T13:39:24.549Z,7.40
2022-08-01T13:41:56.621Z,12.23
2022-08-01T13:44:28.597Z,6.68
2022-08-01T13:47:00.664Z,6.78
2022-08-01T13:49:37.208Z,10.48
2022-08-01T13:52:10.171Z,10.82
2022-08-01T13:54:42.307Z,13.80
2022-08-01T13:57:15.427Z,7.13
2022-08-01T13:59:47.402Z,7.72
2022-08-01T14:02:19.439Z,8.10
2022-08-01T14:04:51.395Z,13.95
2022-08-01T14:07:23.357Z,8.23
2022-08-01T14:10:05.141Z,6.07
2022-08-01T14:12:49.163Z,7.07
2022-08-01T14:15:38.687Z,4.43
2022-08-01T14:18:11.734Z,4.88
2022-08-01T14:20:44.229Z,8.90
2022-08-01T14:23:16.205Z,10.23
2022-08-01T14:26:02.914Z,5.57
2022-08-01T14:28:38.405Z,5.43
2022-08-01T14:31:10.486Z,11.80
2022-08-01T14:33:42.456Z,7.30
2022-08-01T14:36:30.426Z,12.93
2022-08-01T14:39:03.993Z,7.22
2022-08-01T14:41:36.576Z,3.85
2022-08-01T14:44:10.017Z,6.60
2022-08-01T14:46:58.043Z,7.50
2022-08-01T14:49:30.815Z,7.63
2022-08-01T14:52:02.849Z,5.93
2022-08-01T14:54:34.870Z,3.90
2022-08-01T14:57:07.114Z,10.50
2022-08-01T14:59:39.150Z,10.18
2022-08-01T15:02:12.321Z,7.63
2022-08-01T15:04:48.686Z,9.13
2022-08-01T15:07:20.748Z,9.95
2022-08-01T15:09:52.760Z,7.60
2022-08-01T15:12:25.035Z,6.05
2022-08-01T15:14:57.089Z,6.90
2022-08-01T15:17:32.986Z,9.90
2022-08-01T15:20:07.612Z,6.97
2022-08-01T15:22:39.598Z,9.77
2022-08-01T15:25:11.894Z,13.70
2022-08-01T15:27:43.960Z,9.43
2022-08-01T15:30:16.041Z,5.60
2022-08-01T15:32:48.226Z,11.60
2022-08-01T15:35:23.277Z,4.35
2022-08-01T15:37:55.436Z,8.35
2022-08-01T15:40:29.336Z,8.90
2022-08-01T15:43:01.973Z,13.57
2022-08-01T15:45:49.439Z,8.20
2022-08-01T15:48:21.500Z,7.50
2022-08-01T15:50:53.611Z,6.65
2022-08-01T15:53:25.657Z,8.73
2022-08-01T15:55:57.990Z,9.45
2022-08-01T15:58:29.971Z,4.95
2022-08-01T16:01:01.948Z,7.13
2022-08-01T16:03:33.919Z,4.82
2022-08-01T16:06:06.203Z,4.53
2022-08-01T16:08:38.198Z,10.75
2022-08-01T16:11:10.171Z,5.05
2022-08-01T16:13:42.295Z,9.50
2022-08-01T16:16:15.334Z,8.23
2022-08-01T16:18:47.453Z,11.20
2022-08-01T16:21:25.945Z,5.72
2022-08-01T16:23:57.932Z,7.03
2022-08-01T16:26:29.985Z,9.77
2022-08-01T16:29:02.009Z,12.52
2022-08-01T16:31:42.331Z,9.65
2022-08-01T16:34:24.078Z,6.30
2022-08-01T16:36:56.092Z,6.45
2022-08-01T16:39:28.128Z,8.63
2022-08-01T16:42:00.154Z,17.80
2022-08-01T16:44:34.145Z,8.25
2022-08-01T16:47:06.748Z,8.98
2022-08-01T16:49:41.580Z,5.30
2022-08-01T16:52:13.652Z,9.23
2022-08-01T16:54:45.653Z,10.13
2022-08-01T16:57:17.615Z,9.10
2022-08-01T16:59:49.625Z,8.27
2022-08-01T17:02:22.604Z,8.52
2022-08-01T17:04:54.702Z,6.53
2022-08-01T17:07:26.801Z,3.40
2022-08-01T17:10:01.169Z,14.50
2022-08-01T17:12:35.447Z,13.13
2022-08-01T17:15:08.533Z,8.93
2022-08-01T17:17:40.551Z,7.50
2022-08-01T17:20:12.674Z,5.07
2022-08-01T17:22:44.662Z,10.23
2022-08-01T17:25:17.998Z,5.72
2022-08-01T17:27:51.987Z,7.13
2022-08-01T17:30:24.498Z,8.60
2022-08-01T17:32:56.515Z,9.98
2022-08-01T17:35:28.514Z,7.30
2022-08-01T17:38:00.594Z,8.60
2022-08-01T17:40:40.947Z,4.90
2022-08-01T17:43:13.280Z,7.15
2022-08-01T17:45:50.996Z,13.85
2022-08-01T17:48:23.360Z,6.20
2022-08-01T17:50:55.490Z,9.18
2022-08-01T17:53:27.502Z,8.70
2022-08-01T17:56:01.635Z,9.07
2022-08-01T17:58:51.152Z,9.00
2022-08-01T18:01:26.520Z,10.75
2022-08-01T18:03:59.423Z,4.72
2022-08-01T18:06:36.016Z,6.22
2022-08-01T18:09:11.219Z,4.43
2022-08-01T18:11:43.278Z,5.43
2022-08-01T18:14:15.381Z,17.13
2022-08-01T18:16:47.479Z,6.55
2022-08-01T18:19:21.089Z,7.50
2022-08-01T18:21:53.234Z,7.75
2022-08-01T18:24:25.482Z,12.30
2022-08-01T18:26:58.855Z,9.45
2022-08-01T18:29:47.513Z,12.32
2022-08-01T18:32:20.471Z,10.30
2022-08-01T18:34:52.506Z,6.15
2022-08-01T18:37:24.473Z,5.68
2022-08-01T18:40:01.378Z,5.00
2022-08-01T18:42:33.659Z,8.05
2022-08-01T18:45:06.235Z,11.95
2022-08-01T18:47:39.085Z,11.73
2022-08-01T18:50:11.169Z,9.25
2022-08-01T18:52:43.135Z,7.47
2022-08-01T18:55:15.092Z,6.18
2022-08-01T18:57:47.360Z,6.68
2022-08-01T19:00:19.694Z,8.25
2022-08-01T19:02:51.754Z,10.55
2022-08-01T19:05:23.711Z,8.25
2022-08-01T19:08:04.945Z,8.80
2022-08-01T19:10:40.328Z,8.40
2022-08-01T19:13:12.374Z,8.10
2022-08-01T19:15:45.890Z,12.95
2022-08-01T19:18:18.382Z,7.47
2022-08-01T19:20:50.321Z,8.10
2022-08-01T19:23:40.674Z,5.32
2022-08-01T19:28:47.598Z,12.63
2022-08-01T19:31:26.780Z,7.90
2022-08-01T19:33:58.866Z,16.00
2022-08-01T19:36:31.083Z,10.80
2022-08-01T19:39:03.930Z,19.15
2022-08-01T19:41:38.704Z,10.00
2022-08-01T19:44:14.487Z,8.35
2022-08-01T19:46:46.994Z,9.18
2022-08-01T19:49:21.596Z,12.48
2022-08-01T19:52:01.320Z,8.98
2022-08-01T19:54:39.902Z,7.30
2022-08-01T19:57:16.430Z,8.30
2022-08-01T19:59:52.157Z,12.10
2022-08-01T20:02:25.876Z,8.25
2022-08-01T20:04:59.727Z,9.27
2022-08-01T20:07:35.178Z,18.45
2022-08-01T20:10:08.346Z,7.20
2022-08-01T20:12:40.673Z,9.25
2022-08-01T20:15:12.996Z,8.60
2022-08-01T20:17:45.674Z,11.63
2022-08-01T20:20:17.693Z,10.63
2022-08-01T20:22:52.384Z,12.70
2022-08-01T20:25:39.217Z,10.38
2022-08-01T20:28:13.190Z,6.97
2022-08-01T20:30:46.240Z,14.23
2022-08-01T20:33:19.442Z,11.73
2022-08-01T20:35:54.178Z,6.85
2022-08-01T20:38:28.979Z,5.97
2022-08-01T20:41:03.640Z,10.65
2022-08-01T20:43:37.195Z,5.47
2022-08-01T20:46:09.329Z,7.70
2022-08-01T20:48:42.088Z,6.78
2022-08-01T20:51:17.184Z,6.53
2022-08-01T20:53:52.554Z,8.10
2022-08-01T20:56:39.288Z,11.73
2022-08-01T20:59:40.074Z,10.13
2022-08-01T21:02:53.442Z,11.13
2022-08-01T21:05:32.859Z,5.53
2022-08-01T21:08:13.217Z,9.88
2022-08-01T21:13:41.886Z,12.00
2022-08-01T21:16:24.153Z,6.78
2022-08-01T21:19:20.766Z,9.95
2022-08-01T21:22:11.983Z,7.70
2022-08-01T21:24:58.894Z,7.35
2022-08-01T21:27:34.369Z,9.25
2022-08-01T21:30:09.384Z,11.45
2022-08-01T21:32:43.282Z,6.93
2022-08-01T21:35:18.409Z,8.43
2022-08-01T21:37:52.507Z,7.20
2022-08-01T21:40:25.342Z,9.73
2022-08-01T21:43:00.784Z,10.98
2022-08-01T21:45:32.767Z,9.20
2022-08-01T21:48:06.662Z,12.88
2022-08-01T21:50:55.513Z,7.32
2022-08-01T21:53:49.884Z,8.88
2022-08-01T21:57:15.710Z,13.07
2022-08-01T22:00:12.862Z,9.10
2022-08-01T22:03:24.439Z,16.90
2022-08-01T22:05:58.677Z,5.63
2022-08-01T22:08:35.604Z,7.05
2022-08-01T22:11:14.079Z,10.32
2022-08-01T22:13:46.331Z,9.90
2022-08-01T22:16:18.439Z,6.63
2022-08-01T22:18:52.535Z,12.77
2022-08-01T22:21:27.698Z,11.82
2022-08-01T22:23:59.975Z,7.47
2022-08-01T22:26:34.393Z,10.85
2022-08-01T22:29:06.426Z,7.20
2022-08-01T22:31:39.013Z,8.18
2022-08-01T22:34:11.117Z,8.68
2022-08-01T22:36:43.107Z,7.47
2022-08-01T22:39:25.943Z,10.98
2022-08-01T22:42:02.665Z,6.47
2022-08-01T22:44:56.071Z,9.80
2022-08-01T22:47:54.972Z,10.63
2022-08-01T22:50:46.789Z,7.47
2022-08-01T22:53:43.529Z,17.35
2022-08-01T22:56:15.569Z,7.82
2022-08-01T22:58:49.155Z,7.05
2022-08-01T23:01:23.718Z,10.05
2022-08-01T23:03:59.026Z,6.53
2022-08-01T23:06:43.184Z,13.75
2022-08-01T23:09:15.677Z,10.18
2022-08-01T23:11:48.123Z,8.63
2022-08-01T23:14:22.925Z,14.10
2022-08-01T23:16:57.224Z,8.15
2022-08-01T23:19:33.173Z,8.82
2022-08-01T23:22:06.048Z,7.68
2022-08-01T23:24:38.857Z,6.90
2022-08-01T23:28:03.860Z,9.70
2022-08-01T23:30:20.564Z,5.85
2022-08-01T23:32:52.804Z,7.40
2022-08-01T23:35:26.110Z,6.03
2022-08-01T23:38:02.806Z,6.03
2022-08-01T23:40:35.708Z,8.65
2022-08-01T23:43:17.138Z,9.07
2022-08-01T23:46:04.398Z,10.13
2022-08-01T23:48:38.765Z,11.48
2022-08-01T23:51:17.238Z,4.72
2022-08-01T23:53:56.115Z,7.38
2022-08-01T23:56:28.128Z,8.32
2022-08-01T23:59:00.345Z,14.95
